Time;durP1;ratioP1;P1;durP2;ratioP2;P2;SDS_P1;SDS_P2;PMS_P1;PMS_P2;Temp;Humidity;BMP_temperature;BMP_pressure;BME280_temperature;BME280_humidity;BME280_pressure;Samples;Min_cycle;Max_cycle;Signal;HPM_P1;HPM_P2
2021/12/07 00:01:11;;;;;;;0.55;0.55;;;16.10;42.90;;;;;;5086443;28;46864;-20
2021/12/07 00:03:38;;;;;;;0.70;0.70;;;16.10;43.00;;;;;;5086818;28;47040;-20
2021/12/07 00:06:04;;;;;;;0.65;0.65;;;16.10;43.10;;;;;;5086693;28;47188;-20
2021/12/07 00:08:31;;;;;;;0.80;0.60;;;16.10;43.10;;;;;;5086269;28;47080;-16
2021/12/07 00:10:59;;;;;;;0.50;0.50;;;16.00;43.00;;;;;;5086314;28;47222;-20
2021/12/07 00:13:29;;;;;;;0.50;0.50;;;16.00;43.00;;;;;;5086338;28;46802;-20
2021/12/07 00:15:56;;;;;;;0.50;0.50;;;16.00;43.10;;;;;;5086038;28;46878;-17
2021/12/07 00:18:23;;;;;;;0.60;0.60;;;16.00;43.10;;;;;;5086039;28;48821;-17
2021/12/07 00:20:50;;;;;;;0.60;0.60;;;16.00;43.10;;;;;;5085905;28;47479;-16
2021/12/07 00:23:16;;;;;;;0.60;0.60;;;15.90;43.10;;;;;;5086339;28;46895;-16
2021/12/07 00:25:43;;;;;;;0.57;0.50;;;15.90;43.10;;;;;;5086385;28;46912;-16
2021/12/07 00:28:11;;;;;;;0.60;0.50;;;15.90;43.20;;;;;;5086170;28;47967;-16
2021/12/07 00:30:38;;;;;;;0.77;0.63;;;15.90;43.20;;;;;;5085997;28;46858;-16
2021/12/07 00:33:14;;;;;;;0.50;0.50;;;15.90;43.20;;;;;;5085985;28;46810;-16
2021/12/07 00:35:41;;;;;;;0.50;0.50;;;15.90;43.30;;;;;;5086261;28;47025;-20
2021/12/07 00:38:09;;;;;;;0.63;0.60;;;15.80;43.30;;;;;;5085370;27;47883;-20
2021/12/07 00:40:36;;;;;;;0.60;0.60;;;15.80;43.30;;;;;;5085110;28;46850;-20
2021/12/07 00:43:03;;;;;;;0.68;0.40;;;15.80;43.40;;;;;;5085785;28;46793;-20
2021/12/07 00:45:32;;;;;;;0.50;0.50;;;15.80;43.40;;;;;;5085929;28;46930;-20
2021/12/07 00:47:59;;;;;;;0.50;0.50;;;15.80;44.00;;;;;;5085555;28;48213;-20
2021/12/07 00:50:26;;;;;;;0.50;0.50;;;15.80;43.40;;;;;;5085582;28;47334;-20
2021/12/07 00:52:53;;;;;;;0.47;0.45;;;15.70;43.50;;;;;;5086664;27;46810;-16
2021/12/07 00:55:21;;;;;;;0.52;0.52;;;15.70;43.50;;;;;;5102700;27;46944;-16
2021/12/07 00:57:52;;;;;;;1.13;0.50;;;15.70;43.50;;;;;;5105750;27;47087;-16
2021/12/07 01:00:20;;;;;;;0.93;0.50;;;15.70;43.50;;;;;;5105499;27;46897;-16
2021/12/07 01:02:48;;;;;;;0.40;0.40;;;15.70;43.50;;;;;;5105256;27;46884;-17
2021/12/07 01:05:18;;;;;;;0.80;0.38;;;15.70;43.60;;;;;;5105009;27;47137;-16
2021/12/07 01:26:50;;;;;;;0.45;0.45;;;15.50;43.80;;;;;;5105954;27;46777;-20
2021/12/07 01:29:19;;;;;;;0.40;0.40;;;15.50;43.80;;;;;;5105962;27;47823;-16
2021/12/07 01:31:53;;;;;;;0.68;0.35;;;15.50;43.80;;;;;;5105594;27;47115;-16
2021/12/07 01:34:43;;;;;;;0.45;0.45;;;15.50;43.80;;;;;;5106048;27;46891;-16
2021/12/07 01:37:26;;;;;;;0.50;0.50;;;15.50;43.80;;;;;;5105786;27;46848;-16
2021/12/07 01:43:14;;;;;;;0.43;0.43;;;15.50;43.90;;;;;;5087444;27;47016;-20
2021/12/07 01:46:11;;;;;;;0.50;0.50;;;15.50;43.90;;;;;;5083159;28;46933;-20
2021/12/07 01:51:41;;;;;;;0.60;0.50;;;15.50;43.90;;;;;;5086941;27;46896;-20
2021/12/07 01:59:36;;;;;;;0.30;0.30;;;15.40;44.00;;;;;;5085896;28;46818;-17
2021/12/07 02:02:04;;;;;;;0.30;0.30;;;15.40;44.00;;;;;;5088683;28;47681;-21
2021/12/07 02:04:31;;;;;;;0.47;0.47;;;15.40;44.10;;;;;;5088546;27;46814;-21
2021/12/07 02:06:59;;;;;;;0.45;0.45;;;15.40;44.10;;;;;;5088623;28;46987;-17
2021/12/07 02:09:25;;;;;;;1.13;0.60;;;15.40;44.10;;;;;;5088440;28;47224;-21
2021/12/07 02:11:58;;;;;;;0.40;0.30;;;15.40;44.10;;;;;;5087700;28;48872;-20
2021/12/07 02:14:25;;;;;;;0.38;0.38;;;15.30;44.20;;;;;;5088590;28;47557;-16
2021/12/07 02:16:53;;;;;;;0.40;0.40;;;15.30;44.20;;;;;;5088173;28;46847;-16
2021/12/07 02:19:20;;;;;;;0.28;0.28;;;15.30;44.20;;;;;;5088365;28;46944;-16
2021/12/07 02:21:48;;;;;;;0.73;0.55;;;15.30;44.20;;;;;;5087679;28;48140;-16
2021/12/07 02:24:15;;;;;;;0.40;0.40;;;15.30;44.20;;;;;;5088301;28;46883;-17
2021/12/07 02:26:41;;;;;;;0.30;0.30;;;15.30;44.20;;;;;;5087811;28;46924;-20
2021/12/07 02:29:08;;;;;;;0.40;0.40;;;15.30;44.30;;;;;;5088309;28;47167;-17
2021/12/07 02:31:35;;;;;;;0.40;0.40;;;15.30;44.20;;;;;;5087543;28;47846;-20
2021/12/07 02:34:02;;;;;;;0.40;0.40;;;15.30;44.30;;;;;;5088214;28;46813;-17
2021/12/07 02:36:28;;;;;;;0.38;0.35;;;15.30;44.30;;;;;;5088121;28;47032;-16
2021/12/07 02:38:56;;;;;;;0.40;0.40;;;15.30;44.30;;;;;;5088088;28;47116;-20
2021/12/07 02:41:23;;;;;;;0.30;0.30;;;15.30;44.30;;;;;;5087650;28;48078;-16
2021/12/07 02:43:50;;;;;;;0.43;0.43;;;15.20;44.20;;;;;;5087660;28;46880;-19
2021/12/07 02:46:16;;;;;;;0.40;0.40;;;15.20;44.30;;;;;;5087521;28;46830;-20
2021/12/07 02:48:44;;;;;;;0.45;0.45;;;15.20;44.30;;;;;;5088050;28;47317;-17
2021/12/07 02:51:10;;;;;;;0.40;0.40;;;15.20;44.30;;;;;;5087319;28;49247;-16
2021/12/07 02:53:37;;;;;;;0.40;0.40;;;15.20;44.30;;;;;;5087566;28;46986;-16
2021/12/07 02:56:06;;;;;;;0.32;0.32;;;15.20;44.30;;;;;;5087449;28;46762;-17
2021/12/07 02:58:33;;;;;;;0.40;0.40;;;15.20;44.30;;;;;;5087978;28;46826;-20
2021/12/07 03:01:04;;;;;;;0.30;0.30;;;15.20;44.40;;;;;;5087221;28;46920;-20
2021/12/07 03:03:36;;;;;;;0.47;0.47;;;15.20;44.40;;;;;;5087080;28;47406;-20
2021/12/07 03:06:12;;;;;;;0.43;0.43;;;15.20;44.40;;;;;;5087398;28;46901;-16
2021/12/07 03:27:52;;;;;;;0.30;0.30;;;15.10;44.40;;;;;;5084716;28;47056;-20
2021/12/07 03:30:19;;;;;;;0.35;0.35;;;15.10;44.50;;;;;;5087301;28;47287;-16
2021/12/07 03:32:46;;;;;;;0.30;0.30;;;15.10;44.40;;;;;;5086784;28;47801;-17
2021/12/07 03:35:12;;;;;;;0.30;0.30;;;15.10;44.40;;;;;;5087159;28;46962;-18
2021/12/07 03:37:39;;;;;;;0.40;0.40;;;15.10;44.40;;;;;;5087176;28;46967;-20
2021/12/07 03:40:07;;;;;;;0.65;0.40;;;15.10;44.60;;;;;;5086972;28;46911;-21
2021/12/07 03:42:33;;;;;;;0.40;0.40;;;15.10;44.50;;;;;;5087021;27;48130;-16
2021/12/07 03:45:01;;;;;;;0.30;0.30;;;15.10;44.50;;;;;;5086925;28;47504;-21
2021/12/07 03:47:28;;;;;;;0.30;0.30;;;15.10;44.60;;;;;;5086947;28;46896;-16
2021/12/07 03:49:55;;;;;;;0.30;0.30;;;15.10;44.60;;;;;;5086946;28;46947;-20
2021/12/07 03:52:21;;;;;;;0.30;0.30;;;15.00;44.60;;;;;;5087153;28;48040;-20
2021/12/07 03:54:48;;;;;;;0.30;0.30;;;15.00;44.60;;;;;;5086599;28;47125;-16
2021/12/07 03:57:15;;;;;;;0.20;0.20;;;15.00;44.60;;;;;;5086817;28;46992;-16
2021/12/07 03:59:42;;;;;;;0.30;0.30;;;15.00;44.60;;;;;;5086659;28;46960;-16
2021/12/07 04:02:10;;;;;;;0.30;0.30;;;15.00;44.60;;;;;;5086773;28;49208;-16
2021/12/07 04:04:37;;;;;;;0.20;0.20;;;15.00;44.70;;;;;;5086609;28;47088;-16
2021/12/07 04:07:04;;;;;;;0.25;0.25;;;15.00;44.70;;;;;;5086435;28;46792;-20
2021/12/07 04:09:32;;;;;;;0.40;0.30;;;15.00;44.70;;;;;;5086763;28;47099;-17
2021/12/07 04:11:58;;;;;;;0.40;0.40;;;15.00;44.70;;;;;;5086168;28;48063;-21
2021/12/07 04:14:25;;;;;;;1.05;0.32;;;14.90;44.70;;;;;;5085034;27;46915;-17
2021/12/07 04:16:52;;;;;;;0.45;0.45;;;14.90;44.70;;;;;;5086371;28;47245;-16
2021/12/07 04:19:20;;;;;;;0.38;0.38;;;14.90;44.70;;;;;;5086478;28;46932;-20
2021/12/07 04:21:47;;;;;;;0.22;0.22;;;14.90;44.80;;;;;;5086274;28;47826;-20
2021/12/07 04:24:13;;;;;;;0.40;0.40;;;14.90;44.80;;;;;;5086389;28;47440;-20
2021/12/07 04:26:40;;;;;;;0.43;0.40;;;14.90;44.80;;;;;;5086382;28;46897;-16
2021/12/07 04:29:07;;;;;;;0.43;0.43;;;14.90;44.80;;;;;;5086280;28;46916;-17
2021/12/07 04:31:33;;;;;;;0.40;0.40;;;14.90;44.80;;;;;;5086063;28;48941;-20
2021/12/07 04:34:00;;;;;;;0.43;0.40;;;14.90;44.80;;;;;;5086264;28;46908;-20
2021/12/07 04:36:28;;;;;;;0.43;0.43;;;14.90;44.80;;;;;;5085638;28;46736;-20
2021/12/07 04:38:55;;;;;;;0.38;0.38;;;14.90;44.80;;;;;;5086216;28;47378;-17
2021/12/07 04:41:22;;;;;;;0.35;0.35;;;14.80;44.70;;;;;;5085840;28;48112;-20
2021/12/07 04:43:49;;;;;;;0.28;0.28;;;14.90;44.80;;;;;;5085766;28;46910;-17
2021/12/07 04:46:21;;;;;;;0.85;0.40;;;14.80;44.70;;;;;;5085639;28;46862;-20
2021/12/07 04:59:56;;;;;;;0.30;0.30;;;14.80;44.80;;;;;;5083334;28;46974;-21
2021/12/07 05:02:23;;;;;;;0.30;0.30;;;14.80;44.80;;;;;;5085817;28;48226;-17
2021/12/07 05:04:50;;;;;;;0.20;0.20;;;14.70;44.80;;;;;;5085476;28;46902;-16
2021/12/07 05:07:25;;;;;;;0.30;0.20;;;14.70;44.80;;;;;;5085813;28;46855;-17
2021/12/07 05:10:18;;;;;;;0.38;0.38;;;14.70;44.80;;;;;;5085958;28;46877;-16
2021/12/07 05:13:09;;;;;;;0.25;0.25;;;14.70;44.80;;;;;;5085228;27;49000;-20
2021/12/07 05:16:04;;;;;;;0.75;0.32;;;14.70;44.90;;;;;;5085244;28;47410;-20
2021/12/07 05:18:55;;;;;;;0.20;0.20;;;14.70;44.90;;;;;;5085336;28;46949;-21
2021/12/07 05:24:12;;;;;;;0.40;0.40;;;14.70;44.90;;;;;;5082707;28;46837;-16
2021/12/07 05:37:49;;;;;;;0.20;0.20;;;14.60;44.90;;;;;;5086351;28;46731;-21
2021/12/07 05:40:18;;;;;;;0.20;0.20;;;14.60;45.00;;;;;;5088625;27;47040;-21
2021/12/07 05:42:45;;;;;;;0.40;0.40;;;14.60;45.00;;;;;;5089164;28;46905;-16
2021/12/07 05:45:16;;;;;;;0.30;0.30;;;14.60;45.00;;;;;;5088421;28;49085;-20
2021/12/07 05:47:43;;;;;;;0.30;0.30;;;14.60;45.60;;;;;;5088618;28;46827;-16
2021/12/07 05:50:11;;;;;;;0.20;0.20;;;14.60;44.90;;;;;;5088600;28;46965;-21
2021/12/07 05:52:38;;;;;;;0.40;0.40;;;14.60;45.00;;;;;;5088679;28;47233;-17
2021/12/07 05:55:06;;;;;;;0.30;0.30;;;14.60;45.00;;;;;;5087980;28;47955;-17
2021/12/07 05:57:34;;;;;;;0.20;0.20;;;14.50;45.00;;;;;;5088451;27;46905;-17
2021/12/07 06:00:00;;;;;;;0.40;0.40;;;14.50;44.90;;;;;;5088500;28;46915;-16
2021/12/07 06:02:28;;;;;;;0.30;0.30;;;14.60;45.00;;;;;;5088555;28;46908;-16
2021/12/07 06:04:55;;;;;;;0.25;0.25;;;14.50;44.90;;;;;;5088123;28;49097;-16
2021/12/07 06:07:21;;;;;;;0.35;0.35;;;14.50;45.00;;;;;;5088565;28;47005;-17
2021/12/07 06:09:48;;;;;;;0.30;0.30;;;14.50;45.00;;;;;;5088308;28;47067;-20
2021/12/07 06:12:15;;;;;;;0.30;0.30;;;14.60;45.10;;;;;;5088778;28;47056;-16
2021/12/07 06:14:44;;;;;;;0.30;0.30;;;14.70;44.90;;;;;;5088001;28;47089;-21
2021/12/07 06:17:11;;;;;;;0.38;0.30;;;14.90;44.70;;;;;;5088456;28;47155;-17
2021/12/07 06:19:37;;;;;;;0.47;0.40;;;15.10;44.40;;;;;;5088575;28;46877;-16
2021/12/07 06:22:05;;;;;;;0.52;0.45;;;15.20;44.10;;;;;;5088549;28;46892;-17
2021/12/07 06:24:32;;;;;;;0.40;0.40;;;15.50;43.80;;;;;;5088360;28;48105;-21
2021/12/07 06:26:58;;;;;;;0.50;0.50;;;15.60;43.50;;;;;;5088195;28;46919;-17
2021/12/07 06:29:25;;;;;;;0.47;0.47;;;15.80;43.20;;;;;;5087935;28;46835;-21
2021/12/07 06:31:54;;;;;;;0.32;0.30;;;15.90;43.00;;;;;;5087487;28;47273;-16
2021/12/07 06:34:21;;;;;;;0.95;0.30;;;16.00;42.90;;;;;;5087584;28;48228;-20
2021/12/07 06:36:47;;;;;;;0.30;0.30;;;16.00;42.80;;;;;;5087153;27;47672;-20
2021/12/07 06:39:14;;;;;;;0.30;0.30;;;16.00;42.60;;;;;;5087856;28;46846;-21
2021/12/07 06:41:41;;;;;;;0.43;0.43;;;16.10;43.20;;;;;;5087412;28;47203;-20
2021/12/07 06:44:08;;;;;;;0.38;0.38;;;16.10;42.60;;;;;;5087856;28;48286;-20
2021/12/07 06:46:34;;;;;;;0.65;0.50;;;16.10;42.50;;;;;;5087714;28;47295;-20
2021/12/07 06:49:02;;;;;;;0.50;0.50;;;16.10;43.10;;;;;;5087883;28;46923;-17
2021/12/07 06:51:29;;;;;;;0.30;0.30;;;16.10;42.50;;;;;;5087650;28;46811;-20
2021/12/07 06:53:56;;;;;;;0.40;0.40;;;16.10;42.50;;;;;;5087575;28;49091;-20
2021/12/07 06:56:23;;;;;;;0.30;0.30;;;16.10;42.60;;;;;;5087452;28;47222;-16
2021/12/07 06:58:49;;;;;;;0.30;0.30;;;16.10;42.60;;;;;;5087839;28;46840;-16
2021/12/07 07:01:16;;;;;;;0.38;0.38;;;16.10;42.60;;;;;;5087754;28;46989;-16
2021/12/07 07:03:43;;;;;;;0.30;0.30;;;16.10;42.60;;;;;;5087493;28;48845;-20
2021/12/07 07:06:11;;;;;;;0.25;0.25;;;16.00;42.60;;;;;;5087473;28;46972;-16
2021/12/07 07:08:38;;;;;;;0.40;0.40;;;16.00;42.70;;;;;;5087692;28;46874;-21
2021/12/07 07:11:05;;;;;;;0.30;0.30;;;16.00;42.70;;;;;;5087577;28;46842;-20
2021/12/07 07:13:32;;;;;;;0.30;0.30;;;16.00;42.80;;;;;;5087193;28;48146;-16
2021/12/07 07:15:59;;;;;;;0.25;0.25;;;15.90;42.80;;;;;;5087590;28;47018;-21
2021/12/07 07:18:26;;;;;;;0.30;0.30;;;15.90;42.80;;;;;;5087185;28;46898;-20
2021/12/07 07:20:54;;;;;;;0.68;0.45;;;15.90;42.90;;;;;;5087334;28;47158;-20
2021/12/07 07:23:22;;;;;;;0.50;0.50;;;15.90;42.90;;;;;;5087070;27;49050;-17
2021/12/07 07:25:49;;;;;;;0.63;0.50;;;15.80;43.00;;;;;;5086238;28;47201;-16
2021/12/07 07:28:16;;;;;;;0.45;0.45;;;15.80;43.00;;;;;;5087148;28;46876;-17
2021/12/07 07:30:43;;;;;;;0.30;0.30;;;15.80;43.00;;;;;;5087069;28;46877;-20
2021/12/07 07:33:10;;;;;;;0.45;0.45;;;15.80;43.10;;;;;;5087052;28;47958;-18
2021/12/07 07:35:36;;;;;;;0.50;0.50;;;15.70;43.10;;;;;;5086543;28;46798;-20
2021/12/07 07:38:03;;;;;;;0.40;0.40;;;15.70;43.20;;;;;;5086844;28;46839;-16
2021/12/07 07:40:32;;;;;;;0.30;0.30;;;15.70;43.20;;;;;;5087098;28;47296;-16
2021/12/07 07:42:58;;;;;;;0.40;0.40;;;15.70;43.90;;;;;;5086989;27;47059;-20
2021/12/07 07:45:25;;;;;;;0.75;0.40;;;15.60;43.30;;;;;;5086568;28;46915;-16
2021/12/07 07:47:52;;;;;;;0.30;0.30;;;15.60;43.30;;;;;;5086451;27;46843;-17
2021/12/07 07:50:19;;;;;;;0.35;0.30;;;15.60;43.40;;;;;;5086415;28;46959;-21
2021/12/07 07:52:46;;;;;;;0.40;0.38;;;15.60;43.50;;;;;;5086110;28;49120;-16
2021/12/07 07:55:12;;;;;;;0.50;0.50;;;15.60;43.50;;;;;;5086047;28;46897;-16
2021/12/07 07:57:41;;;;;;;0.30;0.30;;;15.50;43.60;;;;;;5086888;28;46843;-16
2021/12/07 08:00:09;;;;;;;0.40;0.40;;;15.50;43.60;;;;;;5086446;28;47261;-16
2021/12/07 08:02:36;;;;;;;0.40;0.40;;;15.50;43.70;;;;;;5086438;28;48805;-16
2021/12/07 08:05:02;;;;;;;0.47;0.47;;;15.50;43.70;;;;;;5086102;28;46993;-20
2021/12/07 08:07:29;;;;;;;0.43;0.40;;;15.50;43.80;;;;;;5086507;28;46869;-17
2021/12/07 08:09:56;;;;;;;0.50;0.50;;;15.50;43.80;;;;;;5086384;28;46983;-16
2021/12/07 08:12:23;;;;;;;0.40;0.40;;;15.50;43.80;;;;;;5086482;28;48045;-16
2021/12/07 08:14:51;;;;;;;0.40;0.40;;;15.40;43.90;;;;;;5086276;28;46832;-16
2021/12/07 08:17:17;;;;;;;0.40;0.40;;;15.40;43.90;;;;;;5086281;28;46881;-20
2021/12/07 08:19:44;;;;;;;0.50;0.50;;;15.40;43.90;;;;;;5086339;28;46895;-21
2021/12/07 08:22:11;;;;;;;0.30;0.30;;;15.40;44.00;;;;;;5086333;28;49207;-20
2021/12/07 08:24:37;;;;;;;0.50;0.50;;;15.40;44.00;;;;;;5086171;28;46834;-16
2021/12/07 08:27:04;;;;;;;0.50;0.50;;;15.30;44.00;;;;;;5086110;28;46932;-20
2021/12/07 08:29:31;;;;;;;0.43;0.43;;;15.30;44.00;;;;;;5086519;28;46935;-20
2021/12/07 08:31:59;;;;;;;0.40;0.40;;;15.30;44.10;;;;;;5086193;28;48839;-20
2021/12/07 08:34:26;;;;;;;0.52;0.52;;;15.30;44.20;;;;;;5086102;28;46973;-17
2021/12/07 08:36:52;;;;;;;0.73;0.50;;;15.30;44.10;;;;;;5085878;28;46911;-20
2021/12/07 08:39:19;;;;;;;0.55;0.55;;;15.30;44.20;;;;;;5086400;27;46842;-16
2021/12/07 08:41:46;;;;;;;0.57;0.57;;;15.30;44.20;;;;;;5085463;28;49088;-16
2021/12/07 08:44:12;;;;;;;0.68;0.55;;;15.30;44.20;;;;;;5086165;28;46924;-20
2021/12/07 08:46:39;;;;;;;0.60;0.60;;;15.30;44.30;;;;;;5085454;28;46806;-20
2021/12/07 08:49:07;;;;;;;0.60;0.60;;;15.20;44.30;;;;;;5086212;28;46822;-17
2021/12/07 08:51:34;;;;;;;1.00;0.60;;;15.20;44.20;;;;;;5085477;28;47949;-20
2021/12/07 08:54:17;;;;;;;0.70;0.60;;;15.20;44.30;;;;;;5085800;28;46862;-17
2021/12/07 08:59:45;;;;;;;0.70;0.70;;;15.20;44.30;;;;;;5082634;28;46808;-20
2021/12/07 09:02:13;;;;;;;0.73;0.60;;;15.20;44.40;;;;;;5085896;27;47050;-20
2021/12/07 09:04:41;;;;;;;0.88;0.70;;;15.20;44.40;;;;;;5085759;28;46938;-20
2021/12/07 09:07:08;;;;;;;0.82;0.80;;;15.20;44.50;;;;;;5085770;28;46803;-16
2021/12/07 09:09:36;;;;;;;0.70;0.70;;;15.20;44.50;;;;;;5085932;28;46920;-16
2021/12/07 09:12:03;;;;;;;1.17;0.93;;;15.20;45.00;;;;;;5085596;28;48110;-20
2021/12/07 09:14:30;;;;;;;0.80;0.80;;;15.30;44.40;;;;;;5085778;28;46917;-17
2021/12/07 09:16:57;;;;;;;0.88;0.80;;;15.50;44.10;;;;;;5085642;28;46908;-17
2021/12/07 09:19:24;;;;;;;1.17;0.60;;;15.70;43.80;;;;;;5085816;28;46888;-16
2021/12/07 09:21:52;;;;;;;0.80;0.80;;;16.00;43.40;;;;;;5085096;28;48193;-15
2021/12/07 09:24:19;;;;;;;0.90;0.90;;;16.20;43.00;;;;;;5085037;27;46293;-16
2021/12/07 09:26:45;;;;;;;0.75;0.70;;;16.40;42.70;;;;;;5084536;28;46933;-16
2021/12/07 09:29:12;;;;;;;1.38;0.90;;;16.60;42.40;;;;;;5085495;28;46869;-16
2021/12/07 09:31:40;;;;;;;0.80;0.80;;;16.80;42.10;;;;;;5084967;28;47109;-20
2021/12/07 09:34:07;;;;;;;1.00;0.90;;;16.90;41.90;;;;;;5085350;28;46924;-20
2021/12/07 09:36:34;;;;;;;1.55;1.00;;;17.00;41.60;;;;;;5084969;28;46947;-21
2021/12/07 09:39:04;;;;;;;0.95;0.93;;;17.20;41.40;;;;;;5085204;28;46872;-15
2021/12/07 09:41:30;;;;;;;0.82;0.82;;;17.30;41.20;;;;;;5084730;28;48264;-16
2021/12/07 09:43:57;;;;;;;2.00;1.00;;;17.40;41.10;;;;;;5085374;28;47408;-20
2021/12/07 09:46:24;;;;;;;1.10;1.00;;;17.40;41.00;;;;;;5085218;28;46856;-20
2021/12/07 09:48:50;;;;;;;1.83;1.55;;;17.40;40.90;;;;;;5085411;28;46932;-20
2021/12/07 09:51:18;;;;;;;1.10;1.00;;;17.50;40.90;;;;;;5084884;28;47888;-21
2021/12/07 09:53:45;;;;;;;1.42;1.20;;;17.50;40.80;;;;;;5084727;27;46891;-20
2021/12/07 09:56:14;;;;;;;2.60;1.38;;;17.50;40.70;;;;;;5084247;28;46911;-21
2021/12/07 09:58:40;;;;;;;1.63;1.10;;;17.50;40.70;;;;;;5084993;28;47233;-21
2021/12/07 10:01:07;;;;;;;1.50;1.30;;;17.60;40.80;;;;;;5084684;28;49138;-20
2021/12/07 10:03:34;;;;;;;1.38;1.27;;;17.50;40.70;;;;;;5084923;28;46811;-20
2021/12/07 10:06:01;;;;;;;1.70;1.30;;;17.50;40.70;;;;;;5084048;28;46803;-20
2021/12/07 10:08:28;;;;;;;1.65;1.17;;;17.50;40.70;;;;;;5085097;28;46903;-20
2021/12/07 10:10:56;;;;;;;1.30;1.20;;;17.50;40.70;;;;;;5085142;27;49087;-20
2021/12/07 10:13:26;;;;;;;1.83;1.38;;;17.50;40.80;;;;;;5088319;28;46980;-20
2021/12/07 10:15:54;;;;;;;1.70;1.15;;;17.50;40.80;;;;;;5088416;28;46744;-20
2021/12/07 10:18:22;;;;;;;1.40;1.30;;;17.50;40.80;;;;;;5088289;28;47000;-21
2021/12/07 10:20:51;;;;;;;1.92;1.30;;;17.50;40.80;;;;;;5087804;28;48414;-20
2021/12/07 10:23:30;;;;;;;1.85;1.35;;;17.50;40.90;;;;;;5087942;28;46904;-21
2021/12/07 10:25:58;;;;;;;2.60;1.50;;;17.50;40.90;;;;;;5087896;28;46834;-21
2021/12/07 10:28:27;;;;;;;1.30;1.20;;;17.50;41.00;;;;;;5088296;28;46944;-20
2021/12/07 10:30:54;;;;;;;3.10;1.38;;;17.40;41.00;;;;;;5086484;28;48019;-20
2021/12/07 10:33:28;;;;;;;1.98;1.70;;;17.40;41.00;;;;;;5087838;28;47073;-19
2021/12/07 10:36:08;;;;;;;1.65;1.23;;;17.40;41.00;;;;;;5087711;28;46961;-19
2021/12/07 10:38:34;;;;;;;1.20;1.02;;;17.40;41.10;;;;;;5088472;28;46928;-20
2021/12/07 10:41:02;;;;;;;1.33;1.23;;;17.40;41.10;;;;;;5087398;28;48217;-20
2021/12/07 10:43:54;;;;;;;1.73;1.30;;;17.40;41.10;;;;;;5087677;28;46827;-20
2021/12/07 10:46:32;;;;;;;2.22;1.38;;;17.40;41.10;;;;;;5087670;28;46814;-17
2021/12/07 10:49:20;;;;;;;1.45;1.35;;;17.40;41.10;;;;;;5087655;28;47186;-17
2021/12/07 10:51:57;;;;;;;1.42;1.30;;;17.40;41.10;;;;;;5087442;28;48975;-16
2021/12/07 10:54:24;;;;;;;1.40;1.30;;;17.40;41.20;;;;;;5087505;28;47036;-16
2021/12/07 10:56:51;;;;;;;1.98;1.50;;;17.30;41.20;;;;;;5087191;28;46871;-16
2021/12/07 10:59:19;;;;;;;1.27;1.17;;;17.30;41.30;;;;;;5087966;27;46928;-16
2021/12/07 11:01:47;;;;;;;2.88;1.38;;;17.40;41.30;;;;;;5087073;28;48228;-16
2021/12/07 11:04:24;;;;;;;1.50;1.40;;;17.40;41.10;;;;;;5087619;28;46876;-16
2021/12/07 11:07:05;;;;;;;1.30;1.17;;;17.50;41.20;;;;;;5087040;28;47095;-16
2021/12/07 11:09:36;;;;;;;1.45;1.35;;;17.50;41.10;;;;;;5087748;28;46898;-17
2021/12/07 11:12:07;;;;;;;1.60;1.02;;;17.50;41.00;;;;;;5087229;27;47860;-16
2021/12/07 11:14:48;;;;;;;3.10;1.17;;;17.60;41.00;;;;;;5087040;28;47454;-17
2021/12/07 11:17:15;;;;;;;2.25;1.45;;;17.60;40.90;;;;;;5087252;28;47312;-16
2021/12/07 11:19:42;;;;;;;2.47;1.20;;;17.70;40.80;;;;;;5087249;28;46994;-16
2021/12/07 11:22:08;;;;;;;1.90;1.20;;;17.70;40.70;;;;;;5087264;28;48025;-16
2021/12/07 11:24:39;;;;;;;1.42;1.30;;;17.70;40.70;;;;;;5086810;27;46996;-20
2021/12/07 11:30:04;;;;;;;2.53;1.42;;;17.80;40.60;;;;;;5084660;28;47073;-20
2021/12/07 11:32:31;;;;;;;2.15;1.38;;;17.90;40.60;;;;;;5086914;28;48734;-20
2021/12/07 11:35:08;;;;;;;1.30;1.20;;;17.90;40.60;;;;;;5086646;28;47421;-20
2021/12/07 11:37:36;;;;;;;1.55;1.00;;;17.90;40.50;;;;;;5086791;27;46831;-20
2021/12/07 11:40:03;;;;;;;1.25;1.13;;;17.90;40.40;;;;;;5086345;28;46930;-20
2021/12/07 11:42:30;;;;;;;1.38;1.27;;;17.90;40.50;;;;;;5085173;28;47949;-20
2021/12/07 11:45:00;;;;;;;1.45;1.20;;;17.90;40.40;;;;;;5086245;28;47002;-20
2021/12/07 11:47:29;;;;;;;1.33;1.23;;;18.00;40.50;;;;;;5087044;28;46883;-16
2021/12/07 11:49:56;;;;;;;1.40;1.30;;;18.00;40.30;;;;;;5087007;28;47068;-20
2021/12/07 11:52:23;;;;;;;1.48;1.20;;;18.10;40.30;;;;;;5086473;28;47098;-20
2021/12/07 11:54:50;;;;;;;1.25;1.08;;;18.00;40.30;;;;;;5086168;28;46957;-20
2021/12/07 11:57:18;;;;;;;2.45;1.55;;;18.00;40.20;;;;;;5086642;28;46945;-21
2021/12/07 11:59:46;;;;;;;1.45;1.35;;;18.00;40.30;;;;;;5086756;28;47146;-20
2021/12/07 12:02:14;;;;;;;2.03;1.40;;;17.90;40.60;;;;;;5086371;28;47843;-20
2021/12/07 12:04:42;;;;;;;2.08;1.40;;;17.80;40.90;;;;;;5086567;28;47144;-20
2021/12/07 12:07:09;;;;;;;1.88;1.40;;;17.70;41.00;;;;;;5086518;28;46923;-19
2021/12/07 12:09:36;;;;;;;1.63;1.33;;;17.70;41.00;;;;;;5086705;27;47121;-20
2021/12/07 12:12:10;;;;;;;2.60;1.15;;;17.90;40.90;;;;;;5086286;28;47955;-20
2021/12/07 12:14:53;;;;;;;2.05;1.20;;;17.90;41.30;;;;;;5086083;28;47428;-20
2021/12/07 12:17:31;;;;;;;1.73;1.33;;;18.00;40.60;;;;;;5086525;28;46919;-21
2021/12/07 12:20:05;;;;;;;1.65;1.20;;;18.00;40.50;;;;;;5086126;28;46920;-20
2021/12/07 12:22:35;;;;;;;1.63;1.38;;;18.00;40.50;;;;;;5086489;27;48925;-20
2021/12/07 12:25:05;;;;;;;1.33;1.20;;;18.00;40.50;;;;;;5086050;28;46893;-21
2021/12/07 12:27:33;;;;;;;2.30;1.40;;;17.90;40.60;;;;;;5086121;27;46831;-16
2021/12/07 12:30:01;;;;;;;3.30;1.20;;;17.80;40.70;;;;;;5086447;28;47317;-16
2021/12/07 12:32:30;;;;;;;2.10;1.40;;;17.70;41.00;;;;;;5085894;28;47814;-16
2021/12/07 12:34:57;;;;;;;1.50;1.25;;;17.60;41.30;;;;;;5084691;27;46922;-16
2021/12/07 12:37:25;;;;;;;3.00;1.60;;;17.50;41.50;;;;;;5086295;28;46906;-20
2021/12/07 12:39:53;;;;;;;1.52;1.35;;;17.40;41.70;;;;;;5086222;28;47270;-20
2021/12/07 12:42:37;;;;;;;37.38;4.38;;;17.30;41.80;;;;;;5085611;28;47941;-19
2021/12/07 12:45:10;;;;;;;13.40;1.92;;;17.20;41.50;;;;;;5085731;27;46976;-17
2021/12/07 12:47:39;;;;;;;7.00;2.10;;;17.20;42.30;;;;;;5086003;27;46807;-17
2021/12/07 12:50:15;;;;;;;14.07;1.95;;;17.30;42.20;;;;;;5085714;28;46930;-17
2021/12/07 12:52:43;;;;;;;4.43;1.65;;;17.60;42.70;;;;;;5085556;28;47883;-18
2021/12/07 12:55:28;;;;;;;6.28;1.30;;;18.10;41.50;;;;;;5085161;28;47031;-17
2021/12/07 12:57:55;;;;;;;3.40;1.42;;;18.30;41.60;;;;;;5085819;27;47078;-16
2021/12/07 13:00:22;;;;;;;4.35;1.50;;;18.50;41.60;;;;;;5085843;28;46885;-17
2021/12/07 13:02:52;;;;;;;9.75;1.52;;;18.80;41.20;;;;;;5085674;28;48236;-18
2021/12/07 13:05:32;;;;;;;2.72;1.35;;;19.00;41.30;;;;;;5085418;28;46985;-17
2021/12/07 13:08:12;;;;;;;6.18;1.42;;;19.20;40.70;;;;;;5085628;27;46875;-17
2021/12/07 13:10:57;;;;;;;6.13;1.67;;;19.20;38.80;;;;;;5085754;28;46876;-16
2021/12/07 13:13:25;;;;;;;1.65;1.27;;;19.20;38.90;;;;;;5085641;28;48947;-17
2021/12/07 13:15:52;;;;;;;2.83;1.30;;;19.30;38.80;;;;;;5085058;27;47463;-16
2021/12/07 13:18:22;;;;;;;2.72;1.25;;;19.30;38.80;;;;;;5085704;28;46927;-17
2021/12/07 13:20:50;;;;;;;3.17;1.60;;;19.30;38.80;;;;;;5085567;28;47151;-17
2021/12/07 13:23:17;;;;;;;2.28;1.27;;;19.30;38.80;;;;;;5085490;28;48416;-17
2021/12/07 13:25:45;;;;;;;2.90;1.17;;;19.30;38.70;;;;;;5085164;28;47057;-16
2021/12/07 13:28:21;;;;;;;3.33;1.20;;;19.40;38.60;;;;;;5085458;28;46858;-17
2021/12/07 13:30:57;;;;;;;2.03;1.20;;;19.40;38.50;;;;;;5085675;28;47007;-17
2021/12/07 13:33:31;;;;;;;4.43;1.20;;;19.50;38.60;;;;;;5085425;28;47795;-18
2021/12/07 13:35:58;;;;;;;1.90;1.02;;;19.70;39.10;;;;;;5085183;28;46969;-17
2021/12/07 13:38:26;;;;;;;4.80;0.98;;;19.90;38.90;;;;;;5085150;27;46924;-18
2021/12/07 13:40:54;;;;;;;2.42;1.23;;;20.10;39.00;;;;;;5085007;28;46897;-15
2021/12/07 13:43:35;;;;;;;2.95;1.08;;;20.30;38.80;;;;;;5084887;28;47903;-18
2021/12/07 13:46:12;;;;;;;2.15;1.08;;;20.40;37.90;;;;;;5085659;27;46846;-17
2021/12/07 13:48:44;;;;;;;3.22;1.30;;;20.30;37.60;;;;;;5088714;27;46835;-17
2021/12/07 13:51:11;;;;;;;5.35;1.38;;;20.20;37.30;;;;;;5088772;27;46815;-17
2021/12/07 13:53:38;;;;;;;7.63;1.67;;;20.20;37.80;;;;;;5088375;28;47958;-18
2021/12/07 13:56:05;;;;;;;12.93;2.22;;;20.10;37.60;;;;;;5088168;28;46953;-17
2021/12/07 13:58:52;;;;;;;19.30;2.28;;;20.10;37.80;;;;;;5088705;27;46751;-18
2021/12/07 14:01:19;;;;;;;15.43;2.20;;;20.00;37.80;;;;;;5088585;27;47028;-17
2021/12/07 14:03:47;;;;;;;16.83;2.20;;;19.90;37.70;;;;;;5088187;28;47916;-17
2021/12/07 14:06:14;;;;;;;14.57;2.90;;;20.00;37.90;;;;;;5088405;28;47551;-17
2021/12/07 14:08:40;;;;;;;18.30;3.42;;;20.00;38.50;;;;;;5088553;28;47017;-17
2021/12/07 14:11:07;;;;;;;18.08;2.92;;;20.10;37.90;;;;;;5088105;28;46828;-17
2021/12/07 14:13:34;;;;;;;12.73;2.40;;;20.00;38.00;;;;;;5088337;28;48271;-17
2021/12/07 14:16:00;;;;;;;13.50;2.60;;;20.00;38.00;;;;;;5087955;27;46874;-17